createdAt,value
2019-04-07T00:00:09.038Z,8.90
2019-04-07T00:02:37.454Z,8.95
2019-04-07T00:05:13.618Z,8.75
2019-04-07T00:07:37.843Z,8.72
2019-04-07T00:10:09.174Z,8.65
2019-04-07T00:12:38.146Z,8.78
2019-04-07T00:15:06.994Z,8.69
2019-04-07T00:17:36.199Z,8.55
2019-04-07T00:20:07.134Z,8.11
2019-04-07T00:22:35.559Z,8.21
2019-04-07T00:25:05.197Z,8.31
2019-04-07T00:27:33.692Z,8.49
2019-04-07T00:30:02.116Z,8.48
2019-04-07T00:32:30.559Z,8.40
2019-04-07T00:34:58.916Z,8.47
2019-04-07T00:37:27.383Z,8.42
2019-04-07T00:39:55.730Z,8.40
2019-04-07T00:42:24.698Z,8.53
2019-04-07T00:44:53.287Z,8.55
2019-04-07T00:47:21.901Z,8.47
2019-04-07T00:49:50.242Z,8.42
2019-04-07T00:52:25.380Z,8.45
2019-04-07T00:54:53.732Z,8.45
2019-04-07T00:57:22.178Z,8.44
2019-04-07T00:59:50.613Z,8.39
2019-04-07T01:02:19.114Z,8.35
2019-04-07T01:04:47.532Z,8.11
2019-04-07T01:07:15.981Z,7.91
2019-04-07T01:09:44.341Z,7.89
2019-04-07T01:12:12.854Z,7.98
2019-04-07T01:14:41.761Z,7.84
2019-04-07T01:17:10.306Z,8.03
2019-04-07T01:19:38.718Z,8.18
2019-04-07T01:22:07.094Z,8.16
2019-04-07T01:24:35.441Z,7.94
2019-04-07T01:27:04.015Z,7.98
2019-04-07T01:29:33.178Z,8.16
2019-04-07T01:32:01.588Z,8.13
2019-04-07T01:34:30.379Z,8.12
2019-04-07T01:36:58.797Z,7.92
2019-04-07T01:39:27.334Z,7.75
2019-04-07T01:41:57.397Z,7.78
2019-04-07T01:44:27.664Z,7.92
2019-04-07T01:46:58.583Z,7.93
2019-04-07T01:49:45.146Z,7.95
2019-04-07T01:52:18.307Z,7.89
2019-04-07T01:54:51.011Z,7.85
2019-04-07T01:57:23.724Z,7.86
2019-04-07T01:59:59.745Z,7.78
2019-04-07T02:02:36.619Z,7.72
2019-04-07T02:05:14.460Z,7.75
2019-04-07T02:07:56.553Z,7.56
2019-04-07T02:10:44.573Z,7.62
2019-04-07T02:13:23.851Z,7.54
2019-04-07T02:16:03.746Z,7.77
2019-04-07T02:18:36.847Z,7.77
2019-04-07T02:21:07.180Z,7.81
2019-04-07T02:23:37.289Z,7.80
2019-04-07T02:26:13.606Z,7.92
2019-04-07T02:28:46.260Z,7.61
2019-04-07T02:31:17.189Z,7.17
2019-04-07T02:33:53.003Z,7.30
2019-04-07T02:36:31.363Z,6.87
2019-04-07T02:39:06.012Z,7.29
2019-04-07T02:41:38.393Z,7.58
2019-04-07T02:44:09.304Z,7.61
2019-04-07T02:46:54.742Z,7.70
2019-04-07T02:49:24.968Z,7.56
2019-04-07T02:52:11.520Z,7.62
2019-04-07T02:54:42.874Z,7.78
2019-04-07T02:57:22.085Z,7.67
2019-04-07T02:59:52.369Z,7.66
2019-04-07T03:02:41.163Z,7.52
2019-04-07T03:05:17.338Z,7.51
2019-04-07T03:07:56.465Z,7.53
2019-04-07T03:10:33.403Z,7.66
2019-04-07T03:13:18.414Z,7.33
2019-04-07T03:15:48.501Z,7.24
2019-04-07T03:18:27.397Z,6.98
2019-04-07T03:21:09.801Z,7.07
2019-04-07T03:23:51.808Z,7.14
2019-04-07T03:26:37.947Z,7.19
2019-04-07T03:29:14.105Z,7.39
2019-04-07T03:31:51.500Z,7.43
2019-04-07T03:34:30.170Z,7.49
2019-04-07T03:37:19.121Z,7.27
2019-04-07T03:39:51.274Z,7.37
2019-04-07T03:42:34.322Z,7.48
2019-04-07T03:45:04.501Z,7.30
2019-04-07T03:47:50.115Z,7.10
2019-04-07T03:50:20.495Z,7.35
2019-04-07T03:52:56.797Z,7.30
2019-04-07T03:55:28.137Z,7.33
2019-04-07T03:58:16.651Z,7.33
2019-04-07T04:01:05.287Z,7.51
2019-04-07T04:03:51.668Z,7.31
2019-04-07T04:06:30.547Z,7.17
2019-04-07T04:09:06.330Z,7.25
2019-04-07T04:11:39.496Z,7.33
2019-04-07T04:14:09.722Z,7.34
2019-04-07T04:16:40.408Z,7.43
2019-04-07T04:19:08.864Z,7.38
2019-04-07T04:21:37.994Z,7.16
2019-04-07T04:24:06.716Z,7.30
2019-04-07T04:26:35.874Z,7.37
2019-04-07T04:29:04.488Z,7.25
2019-04-07T04:31:33.776Z,7.14
2019-04-07T04:34:02.267Z,6.73
2019-04-07T04:36:31.543Z,6.86
2019-04-07T04:39:00.584Z,6.95
2019-04-07T04:41:29.435Z,6.97
2019-04-07T04:43:58.019Z,6.94
2019-04-07T04:46:26.514Z,7.18
2019-04-07T04:48:55.499Z,7.29
2019-04-07T04:51:24.210Z,7.28
2019-04-07T04:53:52.553Z,7.23
2019-04-07T04:56:20.934Z,7.09
2019-04-07T04:58:50.726Z,7.13
2019-04-07T05:01:19.184Z,7.14
2019-04-07T05:03:47.542Z,7.12
2019-04-07T05:06:15.977Z,7.23
2019-04-07T05:08:44.442Z,7.24
2019-04-07T05:11:13.406Z,7.01
2019-04-07T05:13:42.164Z,7.08
2019-04-07T05:16:12.895Z,7.08
2019-04-07T05:18:41.597Z,6.85
2019-04-07T05:21:10.528Z,6.99
2019-04-07T05:23:39.514Z,7.02
2019-04-07T05:26:08.506Z,7.25
2019-04-07T05:28:37.899Z,7.19
2019-04-07T05:31:07.255Z,7.30
2019-04-07T05:33:35.676Z,7.33
2019-04-07T05:36:04.810Z,7.33
2019-04-07T05:38:33.279Z,7.25
2019-04-07T05:41:02.923Z,7.15
2019-04-07T05:43:31.544Z,7.25
2019-04-07T05:46:00.683Z,7.11
2019-04-07T05:48:29.216Z,7.20
2019-04-07T05:50:59.999Z,7.17
2019-04-07T05:53:28.693Z,7.11
2019-04-07T05:55:57.962Z,7.23
2019-04-07T05:58:26.824Z,7.26
2019-04-07T06:00:57.020Z,7.34
2019-04-07T06:03:27.608Z,7.14
2019-04-07T06:05:57.876Z,7.26
2019-04-07T06:08:36.735Z,7.36
2019-04-07T06:11:04.158Z,7.44
2019-04-07T06:13:33.086Z,7.48
2019-04-07T06:16:02.055Z,7.57
2019-04-07T06:18:36.869Z,7.71
2019-04-07T06:21:06.076Z,7.51
2019-04-07T06:23:36.426Z,7.49
2019-04-07T06:26:09.325Z,7.57
2019-04-07T06:28:36.106Z,7.71
2019-04-07T06:31:06.609Z,7.75
2019-04-07T06:33:38.126Z,7.98
2019-04-07T06:36:05.429Z,7.95
2019-04-07T06:38:35.918Z,7.93
2019-04-07T06:41:04.444Z,8.09
2019-04-07T06:43:44.137Z,8.00
2019-04-07T06:46:14.129Z,8.16
2019-04-07T06:49:02.665Z,8.15
2019-04-07T06:51:49.011Z,8.28
2019-04-07T06:54:32.006Z,8.29
2019-04-07T06:57:18.518Z,8.33
2019-04-07T06:59:49.128Z,8.17
2019-04-07T07:02:35.875Z,8.26
2019-04-07T07:05:18.977Z,8.29
2019-04-07T07:07:54.822Z,8.29
2019-04-07T07:10:37.141Z,8.18
2019-04-07T07:13:11.018Z,8.26
2019-04-07T07:15:55.180Z,8.24
2019-04-07T07:18:28.345Z,8.31
2019-04-07T07:21:01.777Z,8.46
2019-04-07T07:23:30.951Z,8.62
2019-04-07T07:26:02.907Z,8.69
2019-04-07T07:28:29.602Z,8.73
2019-04-07T07:30:58.893Z,8.68
2019-04-07T07:33:28.003Z,8.83
2019-04-07T07:35:57.030Z,8.97
2019-04-07T07:38:27.017Z,8.98
2019-04-07T07:40:55.930Z,8.96
2019-04-07T07:43:27.969Z,9.06
2019-04-07T07:45:54.603Z,9.01
2019-04-07T07:48:26.187Z,9.03
2019-04-07T07:50:53.746Z,9.15
2019-04-07T07:53:26.063Z,9.16
2019-04-07T07:55:55.688Z,9.14
2019-04-07T07:58:27.912Z,9.16
2019-04-07T08:00:54.472Z,9.27
2019-04-07T08:03:23.030Z,9.32
2019-04-07T08:05:52.265Z,9.35
2019-04-07T08:08:21.209Z,9.41
2019-04-07T08:10:50.758Z,9.48
2019-04-07T08:13:21.281Z,9.37
2019-04-07T08:15:50.376Z,9.44
2019-04-07T08:18:20.455Z,9.50
2019-04-07T08:20:49.139Z,9.49
2019-04-07T08:23:17.512Z,9.53
2019-04-07T08:25:46.632Z,9.65
2019-04-07T08:28:15.720Z,9.71
2019-04-07T08:30:47.490Z,9.74
2019-04-07T08:33:14.880Z,9.85
2019-04-07T08:35:43.559Z,9.90
2019-04-07T08:38:12.317Z,9.92
2019-04-07T08:40:41.675Z,9.80
2019-04-07T08:43:12.567Z,9.69
2019-04-07T08:45:41.424Z,9.76
2019-04-07T08:48:10.878Z,9.92
2019-04-07T08:50:39.894Z,10.01
2019-04-07T08:53:10.505Z,10.12
2019-04-07T08:55:39.171Z,10.15
2019-04-07T08:58:07.544Z,10.26
2019-04-07T09:00:38.721Z,10.30
2019-04-07T09:03:11.458Z,10.21
2019-04-07T09:05:37.294Z,10.33
2019-04-07T09:08:07.302Z,10.20
2019-04-07T09:10:44.135Z,10.40
2019-04-07T09:13:13.124Z,10.36
2019-04-07T09:15:44.691Z,10.39
2019-04-07T09:18:16.128Z,10.42
2019-04-07T09:21:03.365Z,10.50
2019-04-07T09:23:33.440Z,10.39
2019-04-07T09:26:16.076Z,10.42
2019-04-07T09:28:46.068Z,10.50
2019-04-07T09:31:16.428Z,10.54
2019-04-07T09:33:48.991Z,10.59
2019-04-07T09:36:22.295Z,10.53
2019-04-07T09:38:59.322Z,10.56
2019-04-07T09:41:36.433Z,10.79
2019-04-07T09:44:06.637Z,10.96
2019-04-07T09:46:53.094Z,10.98
2019-04-07T09:49:25.690Z,10.88
2019-04-07T09:51:58.687Z,11.00
2019-04-07T09:54:28.678Z,11.13
2019-04-07T09:57:06.397Z,11.18
2019-04-07T09:59:42.858Z,11.25
2019-04-07T10:02:33.579Z,11.35
2019-04-07T10:05:17.763Z,11.39
2019-04-07T10:08:04.386Z,11.50
2019-04-07T10:10:43.739Z,11.52
2019-04-07T10:13:22.862Z,11.60
2019-04-07T10:16:02.352Z,11.53
2019-04-07T10:18:38.647Z,11.67
2019-04-07T10:21:25.257Z,11.74
2019-04-07T10:23:59.251Z,11.85
2019-04-07T10:26:45.957Z,11.95
2019-04-07T10:29:29.351Z,11.97
2019-04-07T10:32:10.032Z,11.98
2019-04-07T10:34:46.210Z,12.07
2019-04-07T10:37:16.868Z,12.05
2019-04-07T10:40:05.448Z,12.06
2019-04-07T10:42:35.883Z,12.08
2019-04-07T10:45:17.408Z,12.13
2019-04-07T10:47:50.273Z,12.01
2019-04-07T10:50:38.176Z,12.00
2019-04-07T10:53:08.336Z,11.99
2019-04-07T10:55:44.189Z,12.02
2019-04-07T10:58:30.173Z,12.04
2019-04-07T11:01:16.763Z,12.04
2019-04-07T11:03:46.968Z,12.03
2019-04-07T11:06:18.111Z,11.99
2019-04-07T11:09:04.825Z,12.02
2019-04-07T11:11:34.787Z,12.05
2019-04-07T11:14:05.743Z,12.10
2019-04-07T11:16:42.153Z,12.15
2019-04-07T11:19:17.759Z,12.19
2019-04-07T11:21:53.777Z,12.19
2019-04-07T11:24:32.822Z,12.25
2019-04-07T11:27:19.181Z,12.36
2019-04-07T11:29:51.834Z,12.48
2019-04-07T11:32:24.171Z,12.67
2019-04-07T11:34:57.455Z,12.81
2019-04-07T11:37:27.693Z,12.81
2019-04-07T11:40:04.705Z,12.82
2019-04-07T11:42:41.537Z,12.84
2019-04-07T11:45:31.345Z,12.87
2019-04-07T11:48:08.390Z,12.87
2019-04-07T11:50:45.022Z,12.91
2019-04-07T11:53:15.650Z,12.91
2019-04-07T11:56:06.964Z,12.91
2019-04-07T11:58:53.078Z,12.93
2019-04-07T12:01:39.634Z,13.02
2019-04-07T12:04:27.051Z,13.08
2019-04-07T12:07:03.555Z,13.10
2019-04-07T12:09:39.667Z,13.15
2019-04-07T12:12:12.668Z,13.16
2019-04-07T12:14:58.887Z,13.17
2019-04-07T12:17:42.599Z,13.18
2019-04-07T12:20:13.934Z,13.07
2019-04-07T12:22:53.890Z,12.97
2019-04-07T12:25:24.360Z,12.90
2019-04-07T12:28:00.238Z,12.81
2019-04-07T12:30:33.736Z,12.69
2019-04-07T12:33:19.123Z,12.64
2019-04-07T12:35:51.710Z,12.54
2019-04-07T12:38:25.260Z,12.47
2019-04-07T12:41:16.654Z,12.45
2019-04-07T12:43:42.800Z,12.41
2019-04-07T12:46:21.018Z,12.39
2019-04-07T12:48:51.484Z,12.38
2019-04-07T12:51:22.393Z,12.34
2019-04-07T12:54:09.233Z,12.32
2019-04-07T12:56:48.889Z,12.33
2019-04-07T12:59:19.330Z,12.30
2019-04-07T13:01:52.169Z,12.37
2019-04-07T13:04:22.198Z,12.33
2019-04-07T13:07:08.939Z,12.35
2019-04-07T13:09:39.488Z,12.34
2019-04-07T13:12:20.405Z,12.32
2019-04-07T13:14:47.612Z,12.31
2019-04-07T13:17:17.675Z,12.34
2019-04-07T13:20:02.575Z,12.31
2019-04-07T13:22:34.403Z,12.34
2019-04-07T13:25:14.266Z,12.35
2019-04-07T13:28:00.455Z,12.37
2019-04-07T13:30:43.293Z,12.38
2019-04-07T13:33:20.083Z,12.42
2019-04-07T13:35:48.842Z,12.45
2019-04-07T13:38:19.015Z,12.47
2019-04-07T13:41:07.333Z,12.54
2019-04-07T13:43:41.039Z,12.61
2019-04-07T13:46:22.253Z,12.67
2019-04-07T13:49:12.811Z,12.73
2019-04-07T13:54:43.688Z,12.87
2019-04-07T13:57:26.008Z,12.78
2019-04-07T14:00:13.404Z,12.69
2019-04-07T14:02:53.340Z,12.66
2019-04-07T14:05:33.042Z,12.76
2019-04-07T14:08:04.059Z,12.93
2019-04-07T14:10:37.020Z,13.15
2019-04-07T14:13:09.419Z,13.33
2019-04-07T14:15:42.037Z,13.45
2019-04-07T14:18:12.366Z,13.51
2019-04-07T14:20:51.757Z,13.55
2019-04-07T14:23:25.146Z,13.48
2019-04-07T14:25:58.021Z,13.42
2019-04-07T14:28:29.648Z,13.49
2019-04-07T14:31:07.597Z,13.67
2019-04-07T14:33:54.411Z,13.95
2019-04-07T14:36:30.163Z,14.16
2019-04-07T14:39:00.226Z,14.17
2019-04-07T14:41:31.179Z,14.27
2019-04-07T14:44:04.189Z,14.26
2019-04-07T14:46:40.204Z,14.16
2019-04-07T14:49:27.881Z,14.19
2019-04-07T14:51:58.181Z,14.18
2019-04-07T14:54:30.852Z,14.31
2019-04-07T14:57:17.020Z,14.42
2019-04-07T14:59:52.087Z,14.62
2019-04-07T15:02:20.214Z,14.68
2019-04-07T15:04:50.954Z,14.77
2019-04-07T15:07:33.297Z,14.73
2019-04-07T15:10:09.525Z,14.59
2019-04-07T15:12:40.342Z,14.44
2019-04-07T15:15:11.737Z,14.31
2019-04-07T15:17:40.391Z,14.22
2019-04-07T15:20:11.715Z,14.13
2019-04-07T15:22:39.426Z,14.04
2019-04-07T15:25:10.239Z,14.01
2019-04-07T15:27:38.817Z,14.04
2019-04-07T15:30:13.221Z,13.99
2019-04-07T15:32:39.510Z,13.98
2019-04-07T15:35:29.653Z,13.95
2019-04-07T15:37:59.092Z,13.88
2019-04-07T15:40:28.130Z,13.76
2019-04-07T15:42:56.894Z,13.68
2019-04-07T15:45:25.426Z,13.65
2019-04-07T15:47:54.077Z,13.59
2019-04-07T15:50:24.510Z,13.52
2019-04-07T15:52:54.181Z,13.43
2019-04-07T15:55:26.331Z,13.33
2019-04-07T15:57:54.890Z,13.30
2019-04-07T16:00:23.769Z,13.24
2019-04-07T16:02:53.507Z,13.23
2019-04-07T16:05:24.139Z,13.21
2019-04-07T16:07:53.602Z,13.15
2019-04-07T16:10:23.796Z,13.13
2019-04-07T16:12:53.854Z,13.09
2019-04-07T16:15:23.446Z,13.06
2019-04-07T16:17:53.602Z,13.03
2019-04-07T16:20:26.299Z,13.04
2019-04-07T16:22:55.781Z,13.05
2019-04-07T16:25:27.628Z,13.02
2019-04-07T16:27:54.836Z,13.00
2019-04-07T16:30:23.467Z,12.97
2019-04-07T16:32:52.418Z,12.95
2019-04-07T16:35:21.090Z,12.92
2019-04-07T16:37:52.101Z,12.90
2019-04-07T16:40:20.665Z,12.86
2019-04-07T16:43:04.808Z,12.89
2019-04-07T16:45:19.275Z,12.89
2019-04-07T16:47:47.866Z,12.85
2019-04-07T16:50:18.904Z,12.84
2019-04-07T16:52:47.121Z,12.86
2019-04-07T16:55:35.128Z,12.83
2019-04-07T16:58:03.648Z,12.82
2019-04-07T17:00:32.457Z,12.79
2019-04-07T17:03:01.302Z,12.76
2019-04-07T17:05:32.210Z,12.77
2019-04-07T17:08:01.657Z,12.75
2019-04-07T17:10:33.884Z,12.74
2019-04-07T17:13:02.818Z,12.72
2019-04-07T17:15:31.626Z,12.71
2019-04-07T17:18:00.284Z,12.71
2019-04-07T17:20:33.392Z,12.69
2019-04-07T17:22:59.003Z,12.68
2019-04-07T17:25:27.385Z,12.67
2019-04-07T17:27:58.688Z,12.65
2019-04-07T17:30:26.914Z,12.63
2019-04-07T17:32:56.605Z,12.61
2019-04-07T17:35:25.088Z,12.59
2019-04-07T17:37:56.567Z,12.58
2019-04-07T17:40:26.705Z,12.55
2019-04-07T17:42:57.736Z,12.53
2019-04-07T17:45:33.693Z,12.53
2019-04-07T17:48:20.249Z,12.50
2019-04-07T17:51:08.415Z,12.50
2019-04-07T17:53:38.360Z,12.52
2019-04-07T17:56:17.909Z,12.54
2019-04-07T17:58:48.531Z,12.53
2019-04-07T18:01:31.280Z,12.57
2019-04-07T18:04:17.269Z,12.55
2019-04-07T18:07:02.094Z,12.52
2019-04-07T18:09:30.958Z,12.47
2019-04-07T18:12:19.815Z,12.43
2019-04-07T18:14:57.529Z,12.41
2019-04-07T18:17:28.589Z,12.38
2019-04-07T18:20:05.256Z,12.38
2019-04-07T18:22:39.098Z,12.42
2019-04-07T18:25:16.181Z,12.45
2019-04-07T18:27:48.830Z,12.45
2019-04-07T18:30:24.759Z,12.43
2019-04-07T18:32:57.626Z,12.35
2019-04-07T18:35:34.757Z,12.26
2019-04-07T18:38:11.416Z,12.22
2019-04-07T18:41:00.398Z,12.18
2019-04-07T18:43:49.095Z,12.15
2019-04-07T18:46:17.853Z,12.14
2019-04-07T18:48:50.927Z,12.08
2019-04-07T18:51:37.224Z,11.86
2019-04-07T18:54:09.961Z,11.83
2019-04-07T18:56:55.878Z,11.83
2019-04-07T18:59:25.960Z,11.88
2019-04-07T19:02:14.313Z,11.89
2019-04-07T19:04:58.186Z,11.81
2019-04-07T19:07:27.211Z,11.76
2019-04-07T19:10:19.870Z,11.69
2019-04-07T19:13:07.807Z,11.64
2019-04-07T19:15:40.867Z,11.62
2019-04-07T19:18:23.665Z,11.57
2019-04-07T19:20:53.715Z,11.55
2019-04-07T19:23:37.576Z,11.57
2019-04-07T19:26:10.675Z,11.62
2019-04-07T19:28:58.074Z,11.59
2019-04-07T19:31:48.041Z,11.64
2019-04-07T19:34:32.853Z,11.72
2019-04-07T19:37:06.022Z,11.75
2019-04-07T19:39:55.224Z,11.71
2019-04-07T19:42:29.848Z,11.71
2019-04-07T19:45:15.777Z,11.68
2019-04-07T19:47:59.327Z,11.72
2019-04-07T19:50:36.985Z,11.72
2019-04-07T19:53:20.331Z,11.65
2019-04-07T19:55:58.162Z,11.69
2019-04-07T19:58:40.947Z,11.66
2019-04-07T20:01:23.393Z,11.62
2019-04-07T20:03:54.619Z,11.58
2019-04-07T20:06:27.937Z,11.55
2019-04-07T20:09:05.170Z,11.35
2019-04-07T20:11:51.455Z,11.23
2019-04-07T20:14:30.601Z,11.21
2019-04-07T20:17:04.181Z,11.14
2019-04-07T20:19:41.374Z,11.17
2019-04-07T20:22:11.599Z,11.24
2019-04-07T20:24:47.543Z,11.26
2019-04-07T20:27:16.114Z,11.30
2019-04-07T20:29:49.636Z,11.29
2019-04-07T20:32:35.290Z,11.02
2019-04-07T20:35:10.993Z,11.11
2019-04-07T20:37:41.124Z,11.22
2019-04-07T20:40:27.524Z,11.27
2019-04-07T20:42:58.471Z,11.24
2019-04-07T20:45:28.926Z,11.21
2019-04-07T20:48:01.696Z,11.22
2019-04-07T20:50:35.492Z,11.29
2019-04-07T20:53:13.836Z,11.25
2019-04-07T20:55:43.895Z,11.24
2019-04-07T20:58:23.959Z,11.27
2019-04-07T21:01:11.258Z,11.28
2019-04-07T21:03:40.249Z,11.25
2019-04-07T21:06:13.501Z,11.26
2019-04-07T21:09:02.837Z,11.25
2019-04-07T21:11:42.874Z,11.23
2019-04-07T21:14:15.519Z,11.26
2019-04-07T21:16:46.456Z,11.28
2019-04-07T21:19:37.461Z,11.22
2019-04-07T21:22:18.706Z,11.26
2019-04-07T21:25:05.226Z,11.27
2019-04-07T21:27:49.085Z,11.25
2019-04-07T21:30:20.739Z,11.25
2019-04-07T21:32:57.292Z,11.26
2019-04-07T21:35:44.774Z,11.27
2019-04-07T21:38:24.250Z,11.31
2019-04-07T21:41:12.238Z,11.25
2019-04-07T21:43:44.683Z,11.28
2019-04-07T21:46:31.153Z,11.25
2019-04-07T21:49:17.930Z,11.17
2019-04-07T21:51:57.390Z,11.17
2019-04-07T21:54:39.784Z,11.19
2019-04-07T21:57:09.977Z,11.16
2019-04-07T21:59:40.207Z,11.14
2019-04-07T22:02:12.174Z,11.20
2019-04-07T22:04:58.671Z,11.05
2019-04-07T22:07:33.239Z,11.18
2019-04-07T22:10:06.207Z,11.22
2019-04-07T22:12:35.671Z,11.18
2019-04-07T22:15:11.661Z,11.21
2019-04-07T22:17:39.379Z,11.17
2019-04-07T22:20:12.624Z,11.14
2019-04-07T22:22:42.962Z,11.01
2019-04-07T22:25:12.297Z,11.00
2019-04-07T22:27:41.053Z,11.00
2019-04-07T22:30:11.776Z,11.03
2019-04-07T22:32:40.736Z,10.95
2019-04-07T22:35:10.685Z,11.01
2019-04-07T22:37:39.946Z,10.87
2019-04-07T22:40:15.502Z,10.90
2019-04-07T22:42:45.976Z,10.89
2019-04-07T22:45:15.628Z,10.71
2019-04-07T22:47:46.694Z,10.82
2019-04-07T22:50:15.472Z,10.75
2019-04-07T22:52:49.194Z,10.83
2019-04-07T22:55:16.509Z,10.85
2019-04-07T22:57:45.507Z,10.85
2019-04-07T23:00:19.122Z,10.83
2019-04-07T23:02:48.621Z,10.81
2019-04-07T23:05:17.226Z,10.80
2019-04-07T23:07:45.948Z,10.86
2019-04-07T23:10:16.007Z,10.93
2019-04-07T23:12:44.553Z,10.85
2019-04-07T23:15:13.468Z,10.88
2019-04-07T23:17:41.906Z,10.84
2019-04-07T23:20:10.885Z,10.83
2019-04-07T23:22:42.410Z,10.80
2019-04-07T23:25:11.999Z,10.82
2019-04-07T23:27:41.590Z,10.80
2019-04-07T23:30:12.283Z,10.77
2019-04-07T23:32:43.729Z,10.76
2019-04-07T23:35:14.534Z,10.67
2019-04-07T23:37:43.239Z,10.60
2019-04-07T23:40:11.847Z,10.43
2019-04-07T23:42:40.328Z,10.52
2019-04-07T23:45:09.108Z,10.40
2019-04-07T23:47:37.461Z,10.37
2019-04-07T23:50:07.489Z,10.40
2019-04-07T23:52:36.900Z,10.35
2019-04-07T23:55:05.343Z,10.35
2019-04-07T23:57:33.773Z,10.38
